createdAt,value
2019-06-01T00:01:52.284Z,13.70
2019-06-01T00:04:22.851Z,13.70
2019-06-01T00:06:53.288Z,13.60
2019-06-01T00:09:23.686Z,13.60
2019-06-01T00:11:54.390Z,13.50
2019-06-01T00:14:24.906Z,13.50
2019-06-01T00:16:55.366Z,13.40
2019-06-01T00:19:25.760Z,13.30
2019-06-01T00:21:56.192Z,13.40
2019-06-01T00:24:26.592Z,13.40
2019-06-01T00:26:57.034Z,13.50
2019-06-01T00:29:27.428Z,13.50
2019-06-01T00:31:57.862Z,13.50
2019-06-01T00:34:28.327Z,13.40
2019-06-01T00:36:58.757Z,13.40
2019-06-01T00:39:29.314Z,13.30
2019-06-01T00:41:59.754Z,13.30
2019-06-01T00:44:30.155Z,13.20
2019-06-01T00:47:00.583Z,13.10
2019-06-01T00:49:30.980Z,13.10
2019-06-01T00:52:01.426Z,13.00
2019-06-01T00:54:31.887Z,13.00
2019-06-01T00:57:02.332Z,13.00
2019-06-01T00:59:32.783Z,12.90
2019-06-01T01:02:03.295Z,12.90
2019-06-01T01:04:33.691Z,12.90
2019-06-01T01:07:04.144Z,12.80
2019-06-01T01:09:34.609Z,12.90
2019-06-01T01:12:05.045Z,12.90
2019-06-01T01:14:35.440Z,12.80
2019-06-01T01:17:06.323Z,12.80
2019-06-01T01:19:36.723Z,12.70
2019-06-01T01:22:07.239Z,12.60
2019-06-01T01:24:37.633Z,12.60
2019-06-01T01:27:09.037Z,12.50
2019-06-01T01:29:39.433Z,12.40
2019-06-01T01:32:09.882Z,12.40
2019-06-01T01:34:40.270Z,12.30
2019-06-01T01:37:10.713Z,12.20
2019-06-01T01:39:42.166Z,12.20
2019-06-01T01:42:12.613Z,12.10
2019-06-01T01:44:43.004Z,12.00
2019-06-01T01:47:14.409Z,12.00
2019-06-01T01:49:44.915Z,11.90
2019-06-01T01:52:15.344Z,11.90
2019-06-01T01:54:45.755Z,11.90
2019-06-01T01:57:17.155Z,11.90
2019-06-01T01:59:47.561Z,11.80
2019-06-01T02:02:17.998Z,11.80
2019-06-01T02:04:49.361Z,11.80
2019-06-01T02:07:19.793Z,11.80
2019-06-01T02:09:51.077Z,11.80
2019-06-01T02:12:21.576Z,11.80
2019-06-01T02:14:51.966Z,11.70
2019-06-01T02:17:22.404Z,11.70
2019-06-01T02:19:54.072Z,11.60
2019-06-01T02:22:24.623Z,11.60
2019-06-01T02:24:55.846Z,11.60
2019-06-01T02:27:26.301Z,11.50
2019-06-01T02:29:57.163Z,11.50
2019-06-01T02:32:27.624Z,11.60
2019-06-01T02:34:58.576Z,11.50
2019-06-01T02:37:30.175Z,11.50
2019-06-01T02:40:00.921Z,11.50
2019-06-01T02:42:31.406Z,11.50
2019-06-01T02:45:03.546Z,11.50
2019-06-01T02:47:34.091Z,11.40
2019-06-01T02:50:07.149Z,11.40
2019-06-01T02:52:38.126Z,11.40
2019-06-01T02:55:14.731Z,11.40
2019-06-01T02:57:45.204Z,11.40
2019-06-01T03:00:18.095Z,11.40
2019-06-01T03:02:49.028Z,11.40
2019-06-01T03:05:20.500Z,11.40
2019-06-01T03:07:52.632Z,11.40
2019-06-01T03:10:23.063Z,11.40
2019-06-01T03:12:56.377Z,11.40
2019-06-01T03:15:29.724Z,11.50
2019-06-01T03:18:03.520Z,11.50
2019-06-01T03:20:35.511Z,11.60
2019-06-01T03:23:07.922Z,11.60
2019-06-01T03:25:40.593Z,11.70
2019-06-01T03:28:15.832Z,11.80
2019-06-01T03:30:46.340Z,11.80
2019-06-01T03:33:16.813Z,11.90
2019-06-01T03:35:48.401Z,12.00
2019-06-01T03:38:18.928Z,12.10
2019-06-01T03:40:49.359Z,12.10
2019-06-01T03:43:20.203Z,12.20
2019-06-01T03:45:51.026Z,12.30
2019-06-01T03:48:21.700Z,12.30
2019-06-01T03:50:52.146Z,12.40
2019-06-01T03:53:22.542Z,12.50
2019-06-01T03:55:52.967Z,12.60
2019-06-01T03:58:23.364Z,12.80
2019-06-01T04:00:53.823Z,12.90
2019-06-01T04:03:24.218Z,13.10
2019-06-01T04:05:54.647Z,13.20
2019-06-01T04:08:25.115Z,13.40
2019-06-01T04:10:55.558Z,13.50
2019-06-01T04:13:25.957Z,13.60
2019-06-01T04:15:56.391Z,13.70
2019-06-01T04:18:26.784Z,13.80
2019-06-01T04:20:57.234Z,14.00
2019-06-01T04:23:27.632Z,14.10
2019-06-01T04:25:58.091Z,14.20
2019-06-01T04:28:28.557Z,14.30
2019-06-01T04:30:58.995Z,14.40
2019-06-01T04:33:29.415Z,14.50
2019-06-01T04:35:59.847Z,14.60
2019-06-01T04:38:30.248Z,14.80
2019-06-01T04:41:01.371Z,14.90
2019-06-01T04:43:31.783Z,15.00
2019-06-01T04:46:02.214Z,15.20
2019-06-01T04:48:32.604Z,15.30
2019-06-01T04:51:03.045Z,15.30
2019-06-01T04:53:33.443Z,15.40
2019-06-01T04:56:04.803Z,15.50
2019-06-01T04:58:35.314Z,15.70
2019-06-01T05:01:06.921Z,15.80
2019-06-01T05:03:37.372Z,16.00
2019-06-01T05:06:09.138Z,16.20
2019-06-01T05:08:39.678Z,16.30
2019-06-01T05:11:10.617Z,16.60
2019-06-01T05:13:42.103Z,16.80
2019-06-01T05:16:13.405Z,17.10
2019-06-01T05:18:44.661Z,17.30
2019-06-01T05:21:15.337Z,17.40
2019-06-01T05:23:46.976Z,17.50
2019-06-01T05:26:17.423Z,17.70
2019-06-01T05:28:47.948Z,17.90
2019-06-01T05:31:24.731Z,17.90
2019-06-01T05:33:50.563Z,17.80
2019-06-01T05:36:21.000Z,17.70
2019-06-01T05:38:51.645Z,17.70
2019-06-01T05:41:22.095Z,17.70
2019-06-01T05:43:52.541Z,17.60
2019-06-01T05:46:22.981Z,17.70
2019-06-01T05:48:53.424Z,17.80
2019-06-01T05:51:23.854Z,17.80
2019-06-01T05:53:54.286Z,17.70
2019-06-01T05:56:24.683Z,17.60
2019-06-01T05:58:55.118Z,17.60
2019-06-01T06:01:25.512Z,17.60
2019-06-01T06:03:55.950Z,17.50
2019-06-01T06:06:26.347Z,17.60
2019-06-01T06:08:56.860Z,17.70
2019-06-01T06:11:27.261Z,17.70
2019-06-01T06:13:57.698Z,17.90
2019-06-01T06:16:28.096Z,18.00
2019-06-01T06:18:58.539Z,18.00
2019-06-01T06:21:28.939Z,18.00
2019-06-01T06:23:59.402Z,18.30
2019-06-01T06:26:29.816Z,18.70
2019-06-01T06:29:00.255Z,19.30
2019-06-01T06:31:30.650Z,19.60
2019-06-01T06:34:01.079Z,19.60
2019-06-01T06:36:31.483Z,19.30
2019-06-01T06:39:04.756Z,19.40
2019-06-01T06:41:35.409Z,19.40
2019-06-01T06:44:05.918Z,19.20
2019-06-01T06:46:36.368Z,19.10
2019-06-01T06:49:09.812Z,18.80
2019-06-01T06:51:38.958Z,18.80
2019-06-01T06:54:09.408Z,18.80
2019-06-01T06:56:39.810Z,19.10
2019-06-01T06:59:11.798Z,19.30
2019-06-01T07:01:42.322Z,19.30
2019-06-01T07:04:13.376Z,19.20
2019-06-01T07:06:44.000Z,19.20
2019-06-01T07:09:14.475Z,19.00
2019-06-01T07:11:45.897Z,19.00
2019-06-01T07:14:16.342Z,19.20
2019-06-01T07:16:46.738Z,19.60
2019-06-01T07:19:17.177Z,19.70
2019-06-01T07:21:47.644Z,19.80
2019-06-01T07:24:18.089Z,20.00
2019-06-01T07:26:48.809Z,20.20
2019-06-01T07:29:20.027Z,20.30
2019-06-01T07:31:50.862Z,20.30
2019-06-01T07:34:35.556Z,20.20
2019-06-01T07:36:54.682Z,20.10
2019-06-01T07:39:25.184Z,19.80
2019-06-01T07:41:55.704Z,19.80
2019-06-01T07:44:26.933Z,20.00
2019-06-01T07:46:57.376Z,20.30
2019-06-01T07:49:29.086Z,20.40
2019-06-01T07:52:11.715Z,20.30
2019-06-01T07:54:32.696Z,20.20
2019-06-01T07:57:04.364Z,20.20
2019-06-01T07:59:34.897Z,20.30
2019-06-01T08:02:05.569Z,20.30
2019-06-01T08:04:52.882Z,20.60
2019-06-01T08:07:08.300Z,20.90
2019-06-01T08:09:38.732Z,21.10
2019-06-01T08:12:09.119Z,20.90
2019-06-01T08:14:39.589Z,20.50
2019-06-01T08:17:09.993Z,20.30
2019-06-01T08:19:40.513Z,20.20
2019-06-01T08:22:10.925Z,20.70
2019-06-01T08:24:41.457Z,21.20
2019-06-01T08:27:11.853Z,21.30
2019-06-01T08:29:42.288Z,21.10
2019-06-01T08:32:12.687Z,21.30
2019-06-01T08:34:43.132Z,21.40
2019-06-01T08:37:13.551Z,21.90
2019-06-01T08:39:44.066Z,22.40
2019-06-01T08:42:14.476Z,22.80
2019-06-01T08:44:44.916Z,23.40
2019-06-01T08:47:15.377Z,24.10
2019-06-01T08:49:45.808Z,24.70
2019-06-01T08:52:16.203Z,24.40
2019-06-01T08:54:46.659Z,24.50
2019-06-01T08:57:17.126Z,24.70
2019-06-01T08:59:48.533Z,24.90
2019-06-01T09:02:19.026Z,24.80
2019-06-01T09:04:49.517Z,24.70
2019-06-01T09:07:20.042Z,24.50
2019-06-01T09:09:50.928Z,24.70
2019-06-01T09:12:21.432Z,24.50
2019-06-01T09:14:51.837Z,24.20
2019-06-01T09:17:22.275Z,24.40
2019-06-01T09:19:52.667Z,24.90
2019-06-01T09:22:25.341Z,25.20
2019-06-01T09:24:55.985Z,25.70
2019-06-01T09:27:27.659Z,25.90
2019-06-01T09:29:58.326Z,26.50
2019-06-01T09:32:29.941Z,27.00
2019-06-01T09:35:00.603Z,26.70
2019-06-01T09:37:31.114Z,26.80
2019-06-01T09:40:01.525Z,26.80
2019-06-01T09:42:33.278Z,27.20
2019-06-01T09:45:07.748Z,27.00
2019-06-01T09:47:38.211Z,26.90
2019-06-01T09:50:09.001Z,27.20
2019-06-01T09:52:39.445Z,27.40
2019-06-01T09:55:10.235Z,27.60
2019-06-01T09:57:40.662Z,27.60
2019-06-01T10:00:12.271Z,27.70
2019-06-01T10:02:42.708Z,27.10
2019-06-01T10:05:13.349Z,26.60
2019-06-01T10:07:43.776Z,26.30
2019-06-01T10:10:16.837Z,26.20
2019-06-01T10:12:47.357Z,26.60
2019-06-01T10:15:17.820Z,26.90
2019-06-01T10:17:48.316Z,26.80
2019-06-01T10:20:18.711Z,27.10
2019-06-01T10:22:49.143Z,26.70
2019-06-01T10:25:19.532Z,26.40
2019-06-01T10:27:50.165Z,27.00
2019-06-01T10:30:21.214Z,27.10
2019-06-01T10:32:51.823Z,26.60
2019-06-01T10:35:22.261Z,27.00
2019-06-01T10:37:52.716Z,27.30
2019-06-01T10:40:23.114Z,26.90
2019-06-01T10:42:53.544Z,26.80
2019-06-01T10:45:26.895Z,26.90
2019-06-01T10:47:57.377Z,26.60
2019-06-01T10:50:27.763Z,26.50
2019-06-01T10:52:58.536Z,26.40
2019-06-01T10:55:28.923Z,25.70
2019-06-01T10:57:59.365Z,25.30
2019-06-01T11:00:39.215Z,25.10
2019-06-01T11:03:02.089Z,24.90
2019-06-01T11:05:32.614Z,24.90
2019-06-01T11:08:03.125Z,25.10
2019-06-01T11:10:34.706Z,25.80
2019-06-01T11:13:05.404Z,26.40
2019-06-01T11:15:36.892Z,26.60
2019-06-01T11:18:07.408Z,27.00
2019-06-01T11:20:37.795Z,27.40
2019-06-01T11:23:08.303Z,27.60
2019-06-01T11:25:39.649Z,27.60
2019-06-01T11:28:10.207Z,27.30
2019-06-01T11:30:41.770Z,26.90
2019-06-01T11:33:13.342Z,26.50
2019-06-01T11:35:43.734Z,26.30
2019-06-01T11:38:14.164Z,26.40
2019-06-01T11:40:44.931Z,26.90
2019-06-01T11:43:15.399Z,27.30
2019-06-01T11:45:45.793Z,27.80
2019-06-01T11:48:16.228Z,28.20
2019-06-01T11:50:46.618Z,28.30
2019-06-01T11:53:17.263Z,27.60
2019-06-01T11:55:47.646Z,27.50
2019-06-01T11:58:18.158Z,27.50
2019-06-01T12:00:49.062Z,27.20
2019-06-01T12:03:19.520Z,27.00
2019-06-01T12:05:49.990Z,27.00
2019-06-01T12:08:20.433Z,27.00
2019-06-01T12:10:51.022Z,27.20
2019-06-01T12:13:21.452Z,27.40
2019-06-01T12:15:51.861Z,27.50
2019-06-01T12:18:22.314Z,28.20
2019-06-01T12:20:52.724Z,28.20
2019-06-01T12:23:23.201Z,27.80
2019-06-01T12:25:53.764Z,27.40
2019-06-01T12:28:24.199Z,27.10
2019-06-01T12:30:54.590Z,26.80
2019-06-01T12:33:26.104Z,26.50
2019-06-01T12:35:56.497Z,26.30
2019-06-01T12:38:26.924Z,26.40
2019-06-01T12:40:57.397Z,27.00
2019-06-01T12:43:27.836Z,27.60
2019-06-01T12:46:07.404Z,27.90
2019-06-01T12:48:30.358Z,28.20
2019-06-01T12:51:00.764Z,28.40
2019-06-01T12:53:31.200Z,27.80
2019-06-01T12:56:01.589Z,27.80
2019-06-01T12:58:33.009Z,27.60
2019-06-01T13:01:03.502Z,27.70
2019-06-01T13:03:33.931Z,28.00
2019-06-01T13:06:04.468Z,28.20
2019-06-01T13:08:34.908Z,28.20
2019-06-01T13:11:05.344Z,27.70
2019-06-01T13:13:35.726Z,27.60
2019-06-01T13:16:06.153Z,27.90
2019-06-01T13:18:36.552Z,27.80
2019-06-01T13:21:06.982Z,27.30
2019-06-01T13:23:37.375Z,26.80
2019-06-01T13:26:07.865Z,26.60
2019-06-01T13:28:39.219Z,26.60
2019-06-01T13:31:09.648Z,26.40
2019-06-01T13:33:40.042Z,26.20
2019-06-01T13:36:10.471Z,26.10
2019-06-01T13:38:40.861Z,25.80
2019-06-01T13:41:11.370Z,25.50
2019-06-01T13:43:43.576Z,25.60
2019-06-01T13:46:13.871Z,25.90
2019-06-01T13:48:45.506Z,26.00
2019-06-01T13:51:16.061Z,26.20
2019-06-01T13:53:46.455Z,26.20
2019-06-01T13:56:16.894Z,25.80
2019-06-01T13:58:48.205Z,25.70
2019-06-01T14:01:18.701Z,25.80
2019-06-01T14:03:49.427Z,25.90
2019-06-01T14:06:19.998Z,26.10
2019-06-01T14:08:51.075Z,25.90
2019-06-01T14:11:21.588Z,25.70
2019-06-01T14:13:52.104Z,25.40
2019-06-01T14:16:23.682Z,25.40
2019-06-01T14:18:54.135Z,25.40
2019-06-01T14:21:24.612Z,25.50
2019-06-01T14:23:56.064Z,25.80
2019-06-01T14:26:26.682Z,26.30
2019-06-01T14:28:57.064Z,26.60
2019-06-01T14:31:27.491Z,27.10
2019-06-01T14:33:57.884Z,27.30
2019-06-01T14:36:28.322Z,27.70
2019-06-01T14:38:58.956Z,27.80
2019-06-01T14:41:29.440Z,27.80
2019-06-01T14:43:59.823Z,27.90
2019-06-01T14:46:30.254Z,28.20
2019-06-01T14:49:00.653Z,28.10
2019-06-01T14:51:31.081Z,28.10
2019-06-01T14:54:01.487Z,27.70
2019-06-01T14:56:31.982Z,27.10
2019-06-01T14:59:02.374Z,26.80
2019-06-01T15:01:33.310Z,26.40
2019-06-01T15:04:04.908Z,26.40
2019-06-01T15:06:35.332Z,26.60
2019-06-01T15:09:18.565Z,26.80
2019-06-01T15:11:40.638Z,27.00
2019-06-01T15:14:11.040Z,27.10
2019-06-01T15:16:41.486Z,27.00
2019-06-01T15:19:11.875Z,26.60
2019-06-01T15:21:42.397Z,26.50
2019-06-01T15:24:12.787Z,26.60
2019-06-01T15:26:43.892Z,26.50
2019-06-01T15:29:14.307Z,26.40
2019-06-01T15:31:44.760Z,26.40
2019-06-01T15:34:15.157Z,26.50
2019-06-01T15:36:45.658Z,26.30
2019-06-01T15:39:24.885Z,26.10
2019-06-01T15:41:48.477Z,25.90
2019-06-01T15:44:19.130Z,25.90
2019-06-01T15:46:49.631Z,25.80
2019-06-01T15:49:20.058Z,25.60
2019-06-01T15:51:51.764Z,25.60
2019-06-01T15:54:22.248Z,25.70
2019-06-01T15:56:52.692Z,25.50
2019-06-01T15:59:23.147Z,25.50
2019-06-01T16:01:54.905Z,25.60
2019-06-01T16:04:25.512Z,25.40
2019-06-01T16:06:57.155Z,25.30
2019-06-01T16:09:42.102Z,25.30
2019-06-01T16:11:59.842Z,25.50
2019-06-01T16:14:32.997Z,25.40
2019-06-01T16:17:04.798Z,25.30
2019-06-01T16:19:36.401Z,25.10
2019-06-01T16:22:06.913Z,25.00
2019-06-01T16:24:37.375Z,25.00
2019-06-01T16:27:07.843Z,25.00
2019-06-01T16:29:38.285Z,25.00
2019-06-01T16:32:08.776Z,25.00
2019-06-01T16:34:39.231Z,24.90
2019-06-01T16:37:09.681Z,25.00
2019-06-01T16:39:40.129Z,25.00
2019-06-01T16:42:11.147Z,25.10
2019-06-01T16:44:41.604Z,25.00
2019-06-01T16:47:12.126Z,24.90
2019-06-01T16:49:42.555Z,24.80
2019-06-01T16:52:12.980Z,24.70
2019-06-01T16:54:43.464Z,24.80
2019-06-01T16:57:13.980Z,24.80
2019-06-01T16:59:44.558Z,24.70
2019-06-01T17:02:15.388Z,24.60
2019-06-01T17:04:45.885Z,24.60
2019-06-01T17:07:16.273Z,24.50
2019-06-01T17:09:46.731Z,24.50
2019-06-01T17:12:17.119Z,24.50
2019-06-01T17:14:47.784Z,24.50
2019-06-01T17:17:18.322Z,24.40
2019-06-01T17:19:48.910Z,24.40
2019-06-01T17:22:19.577Z,24.20
2019-06-01T17:24:50.027Z,24.10
2019-06-01T17:27:20.415Z,24.10
2019-06-01T17:29:50.839Z,24.00
2019-06-01T17:32:24.503Z,24.00
2019-06-01T17:34:53.423Z,23.90
2019-06-01T17:37:23.815Z,23.90
2019-06-01T17:39:54.391Z,23.90
2019-06-01T17:42:25.822Z,23.80
2019-06-01T17:44:56.268Z,23.80
2019-06-01T17:47:27.206Z,23.80
2019-06-01T17:49:58.053Z,23.70
2019-06-01T17:52:28.445Z,23.70
2019-06-01T17:54:58.871Z,23.60
2019-06-01T17:57:29.269Z,23.60
2019-06-01T17:59:59.701Z,23.50
2019-06-01T18:02:30.160Z,23.30
2019-06-01T18:05:01.926Z,23.20
2019-06-01T18:07:32.474Z,23.20
2019-06-01T18:10:04.630Z,23.10
2019-06-01T18:12:35.218Z,22.90
2019-06-01T18:15:08.305Z,22.80
2019-06-01T18:17:38.896Z,22.80
2019-06-01T18:20:10.994Z,22.60
2019-06-01T18:22:41.755Z,22.50
2019-06-01T18:25:21.611Z,22.40
2019-06-01T18:27:52.187Z,22.20
2019-06-01T18:30:23.831Z,22.00
2019-06-01T18:32:57.284Z,21.90
2019-06-01T18:35:27.960Z,21.80
2019-06-01T18:37:58.350Z,21.60
2019-06-01T18:40:28.830Z,21.40
2019-06-01T18:43:04.047Z,21.30
2019-06-01T18:45:34.549Z,21.10
2019-06-01T18:48:06.080Z,20.90
2019-06-01T18:50:37.781Z,20.80
2019-06-01T18:53:08.546Z,20.60
2019-06-01T18:55:38.984Z,20.50
2019-06-01T18:58:10.309Z,20.40
2019-06-01T19:00:40.976Z,20.30
2019-06-01T19:03:12.256Z,20.20
2019-06-01T19:05:43.633Z,20.10
2019-06-01T19:08:16.181Z,20.10
2019-06-01T19:10:48.796Z,20.00
2019-06-01T19:13:19.788Z,20.00
2019-06-01T19:15:50.291Z,19.90
2019-06-01T19:18:20.684Z,19.90
2019-06-01T19:20:51.132Z,19.80
2019-06-01T19:23:22.971Z,19.70
2019-06-01T19:25:53.514Z,19.70
2019-06-01T19:28:23.908Z,19.50
2019-06-01T19:30:54.602Z,19.40
2019-06-01T19:33:24.991Z,19.30
2019-06-01T19:35:55.598Z,19.20
2019-06-01T19:38:26.798Z,19.20
2019-06-01T19:40:57.302Z,19.10
2019-06-01T19:43:27.858Z,19.00
2019-06-01T19:45:58.299Z,18.90
2019-06-01T19:48:28.687Z,18.70
2019-06-01T19:50:59.129Z,18.60
2019-06-01T19:53:29.588Z,18.50
2019-06-01T19:56:00.088Z,18.50
2019-06-01T19:58:30.600Z,18.40
2019-06-01T20:01:01.050Z,18.30
2019-06-01T20:03:32.505Z,18.30
2019-06-01T20:06:02.975Z,18.30
2019-06-01T20:08:33.412Z,18.40
2019-06-01T20:11:03.928Z,18.40
2019-06-01T20:13:34.317Z,18.40
2019-06-01T20:16:04.821Z,18.20
2019-06-01T20:18:35.220Z,18.10
2019-06-01T20:21:05.800Z,17.90
2019-06-01T20:23:36.262Z,17.80
2019-06-01T20:26:06.721Z,17.80
2019-06-01T20:28:38.081Z,17.70
2019-06-01T20:31:08.593Z,17.60
2019-06-01T20:33:39.110Z,17.50
2019-06-01T20:36:09.553Z,17.50
2019-06-01T20:38:39.979Z,17.40
2019-06-01T20:41:10.394Z,17.30
2019-06-01T20:43:40.988Z,17.30
2019-06-01T20:46:12.831Z,17.20
2019-06-01T20:48:43.468Z,17.10
2019-06-01T20:51:14.729Z,17.10
2019-06-01T20:53:45.653Z,17.00
2019-06-01T20:56:17.292Z,17.00
2019-06-01T20:58:47.987Z,17.00
2019-06-01T21:01:19.708Z,17.00
2019-06-01T21:03:50.241Z,17.00
2019-06-01T21:06:21.191Z,17.00
2019-06-01T21:08:52.816Z,16.90
2019-06-01T21:11:24.429Z,16.90
2019-06-01T21:13:54.975Z,16.80
2019-06-01T21:16:25.381Z,16.80
2019-06-01T21:18:55.818Z,16.80
2019-06-01T21:21:26.215Z,16.90
2019-06-01T21:23:56.664Z,17.00
2019-06-01T21:26:27.245Z,17.00
2019-06-01T21:28:57.697Z,17.10
2019-06-01T21:31:28.102Z,17.10
2019-06-01T21:33:58.703Z,17.10
2019-06-01T21:36:29.249Z,17.10
2019-06-01T21:38:59.740Z,17.20
2019-06-01T21:41:30.151Z,17.20
2019-06-01T21:44:00.826Z,17.10
2019-06-01T21:46:31.234Z,17.10
2019-06-01T21:49:01.721Z,17.00
2019-06-01T21:51:32.170Z,16.90
2019-06-01T21:54:02.611Z,16.80
2019-06-01T21:56:33.026Z,16.70
2019-06-01T21:59:03.464Z,16.60
2019-06-01T22:01:33.874Z,16.60
2019-06-01T22:04:04.448Z,16.50
2019-06-01T22:06:34.840Z,16.40
2019-06-01T22:09:07.221Z,16.40
2019-06-01T22:11:39.099Z,16.30
2019-06-01T22:14:09.534Z,16.20
2019-06-01T22:16:39.936Z,16.10
2019-06-01T22:19:10.379Z,16.10
2019-06-01T22:21:40.777Z,16.00
2019-06-01T22:24:11.211Z,15.90
2019-06-01T22:26:41.605Z,15.80
2019-06-01T22:29:12.044Z,15.70
2019-06-01T22:31:42.441Z,15.70
2019-06-01T22:34:12.873Z,15.60
2019-06-01T22:36:43.268Z,15.60
2019-06-01T22:39:13.717Z,15.60
2019-06-01T22:41:45.736Z,15.60
2019-06-01T22:44:16.197Z,15.50
2019-06-01T22:46:47.371Z,15.40
2019-06-01T22:49:19.009Z,15.40
2019-06-01T22:51:53.243Z,15.30
2019-06-01T22:54:25.121Z,15.30
2019-06-01T22:56:56.232Z,15.30
2019-06-01T22:59:26.733Z,15.20
2019-06-01T23:01:57.174Z,15.20
2019-06-01T23:04:29.131Z,15.10
2019-06-01T23:07:02.365Z,15.10
2019-06-01T23:09:33.445Z,15.00
2019-06-01T23:12:04.053Z,15.00
2019-06-01T23:14:34.590Z,14.90
2019-06-01T23:17:05.499Z,14.80
2019-06-01T23:19:36.208Z,14.80
2019-06-01T23:22:06.762Z,14.80
2019-06-01T23:24:38.364Z,14.70
2019-06-01T23:27:08.893Z,14.70
2019-06-01T23:29:39.438Z,14.60
2019-06-01T23:32:10.074Z,14.60
2019-06-01T23:34:40.728Z,14.50
2019-06-01T23:37:11.216Z,14.50
2019-06-01T23:39:41.740Z,14.40
2019-06-01T23:42:12.249Z,14.40
2019-06-01T23:44:42.696Z,14.40
2019-06-01T23:47:13.093Z,14.30
2019-06-01T23:49:43.550Z,14.30
2019-06-01T23:52:13.950Z,14.30
2019-06-01T23:54:44.431Z,14.30
2019-06-01T23:57:14.919Z,14.20
2019-06-01T23:59:45.394Z,14.20
